WetterOnline ( http://www.wetteronline.de )

Wetter aktuell Bremervörde

Aktuelles Wetter: Bremervörde (5m)

6-stündlich | Neueste Meldungen
Ortszeit Temperatur Wetter
Do, 16.08. 20:00 24.3° C leicht bewölkt
Do, 16.08. 14:00 24.2° C wolkig
Do, 16.08. 8:00 18.7° C bewölkt
Do, 16.08. 2:00 18.6° C bedeckt
Mi, 15.08. 20:00 22.1° C bewölkt
Mi, 15.08. 14:00 23.4° C bewölkt
Mi, 15.08. 8:00 16.0° C wolkig
Mi, 15.08. 2:00 15.5° C wolkig
Ortszeit Temperatur Wetter
Do, 16.08. 23:00 17.6° C wolkig
Do, 16.08. 22:50 17.6° C wolkig
Do, 16.08. 22:40 18.0° C leicht bewölkt
Do, 16.08. 22:30 19.1° C leicht bewölkt
Do, 16.08. 22:20 19.1° C leicht bewölkt
Do, 16.08. 22:10 19.2° C wolkig
Do, 16.08. 22:00 20.5° C wolkig
Do, 16.08. 21:30 21.2° C wolkig
Do, 16.08. 21:00 22.4° C wolkig
Do, 16.08. 20:30 22.8° C wolkig
Do, 16.08. 20:00 24.3° C leicht bewölkt
Ortszeit Relative Feuchte Sichtweite
Do, 16.08. 20:00 57% 19 km
Do, 16.08. 14:00 57% 9 km
Do, 16.08. 8:00 81% 7 km
Do, 16.08. 2:00 84% 12 km
Mi, 15.08. 20:00 68% 17 km
Mi, 15.08. 14:00 62% 14 km
Mi, 15.08. 8:00 90% 14 km
Mi, 15.08. 2:00 91% 35 km
Ortszeit Relative Feuchte Sichtweite
Do, 16.08. 23:00 86% 12 km
Do, 16.08. 22:50 86% -
Do, 16.08. 22:40 86% -
Do, 16.08. 22:30 79% 18 km
Do, 16.08. 22:20 79% -
Do, 16.08. 22:10 76% -
Do, 16.08. 22:00 72% 25 km
Do, 16.08. 21:30 69% 27 km
Do, 16.08. 21:00 65% 25 km
Do, 16.08. 20:30 64% 18 km
Do, 16.08. 20:00 57% 19 km
Ortszeit Niederschlagsmenge Niederschlagsart
Do, 16.08. 20:00 0.0 l/m2 in 12 Std. -
Do, 16.08. 14:00 0.0 l/m2 in 6 Std. -
Do, 16.08. 8:00 0.0 l/m2 in 12 Std. -
Do, 16.08. 2:00 0.0 l/m2 in 6 Std. -
Mi, 15.08. 20:00 0.1 l/m2 in 12 Std. -
Mi, 15.08. 14:00 0.1 l/m2 in 6 Std. Sprühregen
Mi, 15.08. 8:00 0.0 l/m2 in 12 Std. -
Mi, 15.08. 2:00 0.0 l/m2 in 6 Std. -
Ortszeit Niederschlagsmenge Niederschlagsart
Do, 16.08. 23:00 0.0 l/m2 in 1 Std. -
Do, 16.08. 22:50 keine Meldung -
Do, 16.08. 22:40 keine Meldung -
Do, 16.08. 22:30 0.0 l/m2 in 1 Std. -
Do, 16.08. 22:20 keine Meldung -
Do, 16.08. 22:10 keine Meldung -
Do, 16.08. 22:00 0.0 l/m2 in 1 Std. -
Do, 16.08. 21:30 0.0 l/m2 in 1 Std. -
Do, 16.08. 21:00 0.0 l/m2 in 1 Std. -
Do, 16.08. 20:30 0.0 l/m2 in 1 Std. -
Do, 16.08. 20:00 0.0 l/m2 in 1 Std. -
Ortszeit Stärke Spitze Richtung
km/h Bft. km/h Grad Sektor
Do, 16.08. 20:00 7 2 36 280° W
Do, 16.08. 14:00 19 3 37 220° SW
Do, 16.08. 8:00 9 2 17 180° S
Do, 16.08. 2:00 6 1 9 210° SW
Mi, 15.08. 20:00 7 2 25 200° S
Mi, 15.08. 14:00 11 2 29 240° SW
Mi, 15.08. 8:00 9 2 15 220° SW
Mi, 15.08. 2:00 7 2 30 250° W
Ortszeit Stärke Spitze Richtung
km/h Bft. km/h Grad Sektor
Do, 16.08. 23:00 4 1 11 320° NW
Do, 16.08. 22:50 4 1 - 320° NW
Do, 16.08. 22:40 4 1 - 320° NW
Do, 16.08. 22:30 6 1 9 350° N
Do, 16.08. 22:20 6 1 - 350° N
Do, 16.08. 22:10 7 2 - 340° N
Do, 16.08. 22:00 6 1 19 310° NW
Do, 16.08. 21:30 7 2 18 310° NW
Do, 16.08. 21:00 11 2 22 310° NW
Do, 16.08. 20:30 6 1 9 280° W
Do, 16.08. 20:00 7 2 18 280° W
Ortszeit Untergrenze Bedeckung Gattung
total tief tief mittel hoch
Do, 16.08. 20:00 9000 m 8/8 0/8 - - -
Do, 16.08. 14:00 1140 m 7/8 4/8 - - -
Do, 16.08. 8:00 1500 m 8/8 6/8 - - -
Do, 16.08. 2:00 1500 m 8/8 8/8 - - -
Mi, 15.08. 20:00 1800 m 8/8 7/8 - - -
Mi, 15.08. 14:00 1020 m 7/8 6/8 - - -
Mi, 15.08. 8:00 1500 m 5/8 - - - -
Mi, 15.08. 2:00 750 m 8/8 3/8 - - -
Ortszeit Bedeckungsgrad in Achtel und Wolkenuntergrenze
Do, 16.08. 23:00 4(9000m) 5(10500m) 7(10500m)
Do, 16.08. 22:50 4(9000m) 5(10500m) 7(10500m)
Do, 16.08. 22:40 1(3300m) 3(10500m) 6(10500m)
Do, 16.08. 22:30 1(3300m) 3(9000m) 5(10500m)
Do, 16.08. 22:20 1(3300m) 3(9000m) 5(10500m)
Do, 16.08. 22:10 3(9000m) 7(10500m)
Do, 16.08. 22:00 8(9000m) 8(10500m)
Do, 16.08. 21:30 8(9000m) 8(10500m)
Do, 16.08. 21:00 4(9000m) 7(10500m) 7(10500m)
Do, 16.08. 20:30 4(9000m) 5(10500m) 8(10500m)
Do, 16.08. 20:00 8(9000m) 8(10500m) 8(10500m)
Ortszeit Luftdruck NN (hPa) Tendenz (hPa in 3 Std.)
Do, 16.08. 20:00 1014 - 0,1
Do, 16.08. 14:00 1015 - 0,9
Do, 16.08. 8:00 1017 - 0,5
Do, 16.08. 2:00 1018 - 0,1
Mi, 15.08. 20:00 1018 - 0,3
Mi, 15.08. 14:00 1018 0,0
Mi, 15.08. 8:00 1017 + 0,7
Mi, 15.08. 2:00 1016 + 1,2
Ortszeit Luftdruck NN (hPa) Tendenz (hPa in 3 Std.)
Do, 16.08. 23:00 1015 + 1,2
Do, 16.08. 22:50 1015 keine Meldung
Do, 16.08. 22:40 1015 keine Meldung
Do, 16.08. 22:30 1015 + 1,1
Do, 16.08. 22:20 1015 keine Meldung
Do, 16.08. 22:10 1015 keine Meldung
Do, 16.08. 22:00 1015 + 1,0
Do, 16.08. 21:30 1014 + 0,8
Do, 16.08. 21:00 1014 + 0,5
Do, 16.08. 20:30 1014 + 0,1
Do, 16.08. 20:00 1014 - 0,1
Ortszeit Schneehöhe (cm)
Do, 16.08. 20:00 -
Do, 16.08. 14:00 -
Do, 16.08. 8:00 -
Do, 16.08. 2:00 -
Mi, 15.08. 20:00 -
Mi, 15.08. 14:00 -
Mi, 15.08. 8:00 -
Mi, 15.08. 2:00 -
Ortszeit Schneehöhe (cm)
Do, 16.08. 23:00 -
Do, 16.08. 22:50 -
Do, 16.08. 22:40 -
Do, 16.08. 22:30 -
Do, 16.08. 22:20 -
Do, 16.08. 22:10 -
Do, 16.08. 22:00 -
Do, 16.08. 21:30 -
Do, 16.08. 21:00 -
Do, 16.08. 20:30 -
Do, 16.08. 20:00 -
Link zu dieser Seite / Seite empfehlen

Das Wetter in ...